• Join FlightAware (Why Join?)
  • Login
  • US Flag 
01:54AM EDT


 

Airport Tracker/Info


-or-


 

Live Flight TrackerFlight Track Log ✈ CES2266 ✈ 09-May-2013 ✈ ZGHA / CSX - ZLXY / XIY

Flight Track Log - Related Links

Times and Time Zones

All times are in EDT time to prevent confusion due to time zone crossing. See the CES2266 flight status page for this flight to view local times or setup timezone preferences in your user account.

Time Position Orientation Groundspeed Altitude Reporting Facility
EDT Latitude Longitude Course Direction KTS MPH feet Rate Location/Type
06:02AM 28.9162 112.7348 330° Northwest  Level Estimated
06:03AM 28.9888 112.6860 330° Northwest  Level Estimated
06:04AM 29.0614 112.6371 330° Northwest  Level Estimated
06:05AM 29.1339 112.5881 329° Northwest  Level Estimated
06:06AM 29.2065 112.5390 329° Northwest  Level Estimated
06:07AM 29.2790 112.4899 329° Northwest  Level Estimated
06:08AM 29.3515 112.4407 329° Northwest  Level Estimated
06:09AM 29.4240 112.3914 329° Northwest  Level Estimated
06:10AM 29.4965 112.3421 329° Northwest  Level Estimated
06:11AM 29.5690 112.2927 329° Northwest  Level Estimated
06:12AM 29.6414 112.2432 329° Northwest  Level Estimated
06:13AM 29.7138 112.1936 329° Northwest  Level Estimated
06:14AM 29.7862 112.1440 329° Northwest  Level Estimated
06:15AM 29.8586 112.0943 329° Northwest  Level Estimated
06:16AM 29.9310 112.0446 329° Northwest  Level Estimated
06:17AM 30.0033 111.9947 329° Northwest  Level Estimated
06:18AM 30.0757 111.9448 329° Northwest  Level Estimated
06:19AM 30.1480 111.8948 329° Northwest  Level Estimated
06:20AM 30.2203 111.8448 329° Northwest  Level Estimated
06:21AM 30.2925 111.7946 329° Northwest  Level Estimated
06:22AM 30.3648 111.7445 329° Northwest  Level Estimated
06:23AM 30.4370 111.6942 329° Northwest  Level Estimated
06:24AM 30.5093 111.6438 329° Northwest  Level Estimated
06:25AM 30.5815 111.5934 329° Northwest  Level Estimated
06:26AM 30.6537 111.5429 329° Northwest  Level Estimated
06:27AM 30.7258 111.4923 329° Northwest  Level Estimated
06:28AM 30.7980 111.4417 329° Northwest  Level Estimated
06:29AM 30.8701 111.3909 329° Northwest  Level Estimated
06:30AM 30.9422 111.3401 329° Northwest  Level Estimated
06:31AM 31.0142 111.2892 329° Northwest  Level Estimated
06:32AM 31.0863 111.2383 329° Northwest  Level Estimated
06:33AM 31.1583 111.1872 329° Northwest  Level Estimated
06:34AM 31.2304 111.1361 329° Northwest  Level Estimated
06:35AM 31.3024 111.0849 329° Northwest  Level Estimated
06:36AM 31.3743 111.0337 329° Northwest  Level Estimated
06:37AM 31.4463 110.9823 329° Northwest  Level Estimated
06:38AM 31.5182 110.9309 329° Northwest  Level Estimated
06:39AM 31.5902 110.8794 329° Northwest  Level Estimated
06:40AM 31.6621 110.8278 329° Northwest  Level Estimated
06:41AM 31.7339 110.7761 329° Northwest  Level Estimated
06:42AM 31.8058 110.7244 329° Northwest  Level Estimated
06:43AM 31.8776 110.6725 329° Northwest  Level Estimated
06:44AM 31.9494 110.6206 328° Northwest  Level Estimated
06:45AM 32.0212 110.5686 328° Northwest  Level Estimated
06:46AM 32.0930 110.5166 328° Northwest  Level Estimated
06:47AM 32.1647 110.4644 328° Northwest  Level Estimated
06:48AM 32.2365 110.4122 328° Northwest  Level Estimated
06:49AM 32.3082 110.3599 328° Northwest  Level Estimated
06:50AM 32.3799 110.3075 328° Northwest  Level Estimated
06:51AM 32.4515 110.2550 328° Northwest  Level Estimated
06:52AM 32.5232 110.2024 328° Northwest  Level Estimated
06:53AM 32.5948 110.1498 328° Northwest  Level Estimated
06:54AM 32.6664 110.0970 328° Northwest  Level Estimated
06:55AM 32.7380 110.0442 328° Northwest  Level Estimated
06:56AM 32.8095 109.9913 328° Northwest  Level Estimated
06:57AM 32.8827 109.9370 328° Northwest  Level Estimated
06:58AM 32.9559 109.8827 328° Northwest  Level Estimated
06:59AM 33.0291 109.8283 328° Northwest  Level Estimated
07:00AM 33.1022 109.7738 328° Northwest  Level Estimated
07:01AM 33.1754 109.7192 328° Northwest  Level Estimated
07:02AM 33.2485 109.6645 328° Northwest  Level Estimated
07:03AM 33.3215 109.6097 328° Northwest  Level Estimated
07:04AM 33.3946 109.5548 328° Northwest  Level Estimated
07:05AM 33.4676 109.4999 328° Northwest  Level Estimated
07:06AM 33.5406 109.4448 328° Northwest  Level Estimated
07:07AM 33.6136 109.3897 328° Northwest  Level Estimated
07:08AM 33.6865 109.3344 328° Northwest  Level Estimated
07:09AM 33.7594 109.2791 328° Northwest  Level Estimated
07:10AM 33.8323 109.2236 328° Northwest  Level Estimated
07:11AM 33.9052 109.1681 328° Northwest  Level Estimated
07:12AM 33.9781 109.1125 328° Northwest  Level Estimated
07:13AM 34.0509 109.0568 328° Northwest  Level Estimated
07:14AM 34.1237 109.0010 328° Northwest  Level Estimated
07:15AM 34.1965 108.9451 328° Northwest  Level Estimated
07:16AM 34.2692 108.8890 328° Northwest  Level Estimated
07:17AM 34.3419 108.8329 328° Northwest  Level Estimated
07:18AM 34.4146 108.7767 327° Northwest  Level Estimated
07:19AM 34.4471 108.7516 327° Northwest  Level Estimated
07:20AM 34.4471 108.7516 121° Southeast  Level Estimated
07:21AM 34.4471 108.7516 121° Southeast  Level Estimated
07:22AM 34.4471 108.7516 121° Southeast  Level Estimated
07:23AM 34.4471 108.7516 121° Southeast  Level Estimated
07:24AM 34.4471 108.7516 121° Southeast  Level Estimated
07:25AM 34.4471 108.7516 121° Southeast  Level Estimated
07:26AM 34.4471 108.7516 121° Southeast  Level Estimated
07:27AM 34.4471 108.7516 121° Southeast  Level Estimated
07:28AM 34.4471 108.7516 121° Southeast  Level Estimated
07:29AM 34.4471 108.7516 121° Southeast  Level Estimated
07:30AM 34.4471 108.7516 121° Southeast  Level Estimated
07:31AM 34.4471 108.7516 121° Southeast  Level Estimated